Terminal Aerodrome Forecast
Issued by NWS

Current Version | Previous Version | Graphics & Text | Print | Product List | Glossary On
Versions: 1 2 3 4 5 6 7 8 9 10 11 12 13 14 15 16 17 18 19 20 21 22 23 24 25
000
FTUS41 KRLX 211120
TAFCKB
TAF
KCKB 211120Z 2112/2212 23007KT P6SM SHRA OVC035
     FM211300 24008KT P6SM OVC025
     FM211700 26009KT P6SM SCT025
     FM212200 28009KT P6SM BKN060
     FM220000 30005KT P6SM BKN040
     FM220500 36005KT P6SM BKN025=

USA.gov is the U.S. government's official web portal to all federal, state and local government web resources and services.